createdAt,value
2023-05-25T00:01:54.518Z,99459.34
2023-05-25T00:04:27.156Z,99462.59
2023-05-25T00:06:54.990Z,99457.81
2023-05-25T00:09:22.656Z,99464.22
2023-05-25T00:11:50.187Z,99461.53
2023-05-25T00:14:17.771Z,99465.28
2023-05-25T00:16:48.420Z,99468.25
2023-05-25T00:19:18.616Z,99461.63
2023-05-25T00:21:48.431Z,99464.44
2023-05-25T00:24:15.985Z,99461.91
2023-05-25T00:26:43.521Z,99462.53
2023-05-25T00:29:12.756Z,99454.84
2023-05-25T00:31:40.379Z,99456.94
2023-05-25T00:34:07.824Z,99452.84
2023-05-25T00:36:37.187Z,99449.22
2023-05-25T00:39:04.784Z,99455.50
2023-05-25T00:41:32.895Z,99452.06
2023-05-25T00:44:00.948Z,99454.72
2023-05-25T00:46:31.613Z,99448.81
2023-05-25T00:48:59.272Z,99458.91
2023-05-25T00:51:27.982Z,99463.06
2023-05-25T00:53:55.668Z,99462.50
2023-05-25T00:56:29.347Z,99453.66
2023-05-25T00:59:04.652Z,99452.09
2023-05-25T01:01:39.966Z,99446.53
2023-05-25T01:04:15.569Z,99449.03
2023-05-25T01:06:48.430Z,99450.84
2023-05-25T01:09:18.520Z,99456.22
2023-05-25T01:11:50.870Z,99457.22
2023-05-25T01:14:25.064Z,99456.91
2023-05-25T01:16:53.542Z,99456.41
2023-05-25T01:19:22.048Z,99455.66
2023-05-25T01:22:07.852Z,99455.09
2023-05-25T01:24:44.872Z,99457.19
2023-05-25T01:27:28.332Z,99455.91
2023-05-25T01:29:57.767Z,99461.25
2023-05-25T01:32:26.343Z,99451.25
2023-05-25T01:34:56.892Z,99451.03
2023-05-25T01:37:26.446Z,99450.69
2023-05-25T01:39:54.229Z,99454.69
2023-05-25T01:42:21.738Z,99459.84
2023-05-25T01:44:50.754Z,99458.97
2023-05-25T01:47:49.552Z,99455.44
2023-05-25T01:50:47.372Z,99449.28
2023-05-25T01:53:37.268Z,99450.28
2023-05-25T01:56:09.473Z,99449.06
2023-05-25T01:58:47.314Z,99456.75
2023-05-25T02:01:17.869Z,99455.69
2023-05-25T02:03:50.942Z,99461.19
2023-05-25T02:06:18.682Z,99459.75
2023-05-25T02:08:46.271Z,99453.69
2023-05-25T02:11:14.891Z,99453.34
2023-05-25T02:13:42.740Z,99459.19
2023-05-25T02:16:10.671Z,99459.84
2023-05-25T02:18:38.309Z,99466.09
2023-05-25T02:21:06.121Z,99459.63
2023-05-25T02:23:33.705Z,99464.91
2023-05-25T02:26:01.206Z,99470.75
2023-05-25T02:28:28.736Z,99479.00
2023-05-25T02:30:56.681Z,99467.66
2023-05-25T02:33:25.364Z,99463.50
2023-05-25T02:35:52.894Z,99465.38
2023-05-25T02:38:22.140Z,99468.34
2023-05-25T02:40:49.660Z,99466.25
2023-05-25T02:43:17.212Z,99467.13
2023-05-25T02:45:45.076Z,99468.75
2023-05-25T02:48:13.017Z,99475.94
2023-05-25T02:50:40.527Z,99493.28
2023-05-25T02:53:11.780Z,99480.53
2023-05-25T02:55:40.668Z,99491.06
2023-05-25T02:58:11.114Z,99495.03
2023-05-25T03:00:55.819Z,99490.97
2023-05-25T03:03:23.459Z,99497.78
2023-05-25T03:05:52.458Z,99496.56
2023-05-25T03:08:20.062Z,99495.03
2023-05-25T03:10:48.286Z,99489.75
2023-05-25T03:13:17.109Z,99493.19
2023-05-25T03:15:48.137Z,99486.25
2023-05-25T03:18:16.572Z,99482.06
2023-05-25T03:20:45.800Z,99491.28
2023-05-25T03:23:15.187Z,99492.06
2023-05-25T03:25:43.115Z,99491.19
2023-05-25T03:28:11.378Z,99494.47
2023-05-25T03:30:39.584Z,99503.06
2023-05-25T03:33:07.239Z,99490.97
2023-05-25T03:35:41.873Z,99502.41
2023-05-25T03:38:10.164Z,99493.63
2023-05-25T03:40:37.763Z,99495.59
2023-05-25T03:43:05.517Z,99492.09
2023-05-25T03:45:33.190Z,99502.06
2023-05-25T03:48:00.965Z,99503.63
2023-05-25T03:50:29.103Z,99501.09
2023-05-25T03:53:00.147Z,99500.97
2023-05-25T03:55:28.392Z,99504.91
2023-05-25T03:57:55.968Z,99500.75
2023-05-25T04:00:23.519Z,99502.06
2023-05-25T04:02:51.190Z,99499.66
2023-05-25T04:05:19.773Z,99502.94
2023-05-25T04:07:47.430Z,99503.06
2023-05-25T04:10:16.076Z,99506.91
2023-05-25T04:12:43.647Z,99507.13
2023-05-25T04:15:14.261Z,99500.84
2023-05-25T04:18:03.201Z,99505.47
2023-05-25T04:20:31.055Z,99502.69
2023-05-25T04:22:59.271Z,99502.91
2023-05-25T04:25:29.503Z,99508.41
2023-05-25T04:27:58.680Z,99513.88
2023-05-25T04:30:45.885Z,99507.69
2023-05-25T04:33:29.857Z,99508.78
2023-05-25T04:36:14.404Z,99518.66
2023-05-25T04:38:42.986Z,99518.88
2023-05-25T04:41:10.855Z,99528.94
2023-05-25T04:43:43.922Z,99529.94
2023-05-25T04:46:20.852Z,99528.31
2023-05-25T04:48:48.738Z,99530.19
2023-05-25T04:51:16.404Z,99534.16
2023-05-25T04:53:43.938Z,99537.78
2023-05-25T04:56:11.449Z,99537.38
2023-05-25T04:58:39.011Z,99538.00
2023-05-25T05:01:06.612Z,99531.97
2023-05-25T05:03:34.296Z,99538.88
2023-05-25T05:06:03.046Z,99538.00
2023-05-25T05:08:32.024Z,99528.81
2023-05-25T05:10:59.560Z,99533.47
2023-05-25T05:13:27.383Z,99536.81
2023-05-25T05:15:55.924Z,99535.88
2023-05-25T05:18:23.795Z,99539.22
2023-05-25T05:20:52.354Z,99542.88
2023-05-25T05:23:20.440Z,99535.84
2023-05-25T05:25:48.438Z,99542.16
2023-05-25T05:28:16.756Z,99544.22
2023-05-25T05:30:46.717Z,99536.00
2023-05-25T05:33:15.361Z,99540.78
2023-05-25T05:35:47.276Z,99543.44
2023-05-25T05:38:19.561Z,99532.94
2023-05-25T05:40:47.583Z,99537.78
2023-05-25T05:43:19.993Z,99533.94
2023-05-25T05:45:47.848Z,99534.34
2023-05-25T05:48:16.012Z,99540.69
2023-05-25T05:50:43.845Z,99540.59
2023-05-25T05:53:13.318Z,99546.13
2023-05-25T05:55:41.578Z,99553.16
2023-05-25T05:58:09.188Z,99550.16
2023-05-25T06:00:36.750Z,99541.38
2023-05-25T06:03:06.646Z,99551.06
2023-05-25T06:05:34.224Z,99549.00
2023-05-25T06:08:05.144Z,99551.09
2023-05-25T06:10:35.059Z,99551.16
2023-05-25T06:13:02.859Z,99544.03
2023-05-25T06:15:30.459Z,99547.63
2023-05-25T06:18:00.294Z,99550.38
2023-05-25T06:20:28.980Z,99555.72
2023-05-25T06:22:56.598Z,99566.19
2023-05-25T06:25:24.217Z,99567.00
2023-05-25T06:27:51.938Z,99565.31
2023-05-25T06:30:19.551Z,99568.25
2023-05-25T06:32:47.131Z,99563.44
2023-05-25T06:35:19.760Z,99574.66
2023-05-25T06:37:50.584Z,99560.78
2023-05-25T06:40:19.916Z,99566.75
2023-05-25T06:42:47.427Z,99564.31
2023-05-25T06:45:39.142Z,99565.34
2023-05-25T06:48:06.896Z,99567.06
2023-05-25T06:50:34.532Z,99572.31
2023-05-25T06:53:02.063Z,99564.16
2023-05-25T06:55:29.734Z,99565.56
2023-05-25T06:57:57.917Z,99567.44
2023-05-25T07:00:25.563Z,99567.84
2023-05-25T07:02:54.300Z,99569.03
2023-05-25T07:05:22.117Z,99560.28
2023-05-25T07:07:49.741Z,99556.94
2023-05-25T07:10:18.169Z,99563.44
2023-05-25T07:12:45.719Z,99570.69
2023-05-25T07:15:13.887Z,99566.13
2023-05-25T07:17:41.754Z,99555.81
2023-05-25T07:20:10.691Z,99563.84
2023-05-25T07:22:38.259Z,99561.56
2023-05-25T07:25:06.833Z,99564.59
2023-05-25T07:27:34.840Z,99563.03
2023-05-25T07:30:02.694Z,99558.78
2023-05-25T07:32:30.583Z,99562.25
2023-05-25T07:34:58.365Z,99558.75
2023-05-25T07:37:28.539Z,99561.84
2023-05-25T07:39:56.011Z,99560.38
2023-05-25T07:42:23.622Z,99566.47
2023-05-25T07:44:51.063Z,99564.34
2023-05-25T07:47:18.551Z,99564.53
2023-05-25T07:49:46.341Z,99560.78
2023-05-25T07:52:15.058Z,99557.31
2023-05-25T07:54:42.613Z,99553.44
2023-05-25T07:57:10.134Z,99550.78
2023-05-25T07:59:37.703Z,99560.19
2023-05-25T08:02:05.901Z,99556.50
2023-05-25T08:04:35.642Z,99558.97
2023-05-25T08:07:03.864Z,99566.16
2023-05-25T08:09:31.366Z,99560.63
2023-05-25T08:12:13.438Z,99562.50
2023-05-25T08:14:47.555Z,99568.75
2023-05-25T08:17:15.242Z,99571.50
2023-05-25T08:19:43.546Z,99563.69
2023-05-25T08:22:11.164Z,99572.03
2023-05-25T08:24:38.703Z,99565.88
2023-05-25T08:27:06.509Z,99557.53
2023-05-25T08:29:33.975Z,99561.19
2023-05-25T08:32:01.663Z,99552.53
2023-05-25T08:34:29.700Z,99558.41
2023-05-25T08:37:00.349Z,99551.75
2023-05-25T08:39:35.030Z,99560.53
2023-05-25T08:42:03.871Z,99554.19
2023-05-25T08:44:35.437Z,99564.50
2023-05-25T08:47:15.287Z,99560.50
2023-05-25T08:49:45.767Z,99559.09
2023-05-25T08:52:15.698Z,99551.81
2023-05-25T08:54:51.242Z,99561.63
2023-05-25T08:57:32.540Z,99549.13
2023-05-25T09:00:13.032Z,99539.34
2023-05-25T09:03:18.144Z,99543.19
2023-05-25T09:05:47.374Z,99546.13
2023-05-25T09:08:15.876Z,99546.44
2023-05-25T09:10:43.901Z,99541.13
2023-05-25T09:13:21.249Z,99535.47
2023-05-25T09:15:54.516Z,99534.16
2023-05-25T09:18:22.046Z,99541.84
2023-05-25T09:20:50.396Z,99549.47
2023-05-25T09:23:18.131Z,99551.34
2023-05-25T09:25:48.072Z,99544.56
2023-05-25T09:30:47.897Z,99534.84
2023-05-25T09:33:17.836Z,99533.00
2023-05-25T09:35:51.598Z,99532.84
2023-05-25T09:38:19.842Z,99526.63
2023-05-25T09:40:49.339Z,99521.63
2023-05-25T09:43:25.316Z,99523.06
2023-05-25T09:46:03.400Z,99517.53
2023-05-25T09:48:31.600Z,99523.19
2023-05-25T09:50:59.249Z,99529.63
2023-05-25T09:53:27.561Z,99523.47
2023-05-25T09:55:55.103Z,99521.09
2023-05-25T09:58:27.392Z,99517.94
2023-05-25T10:00:55.560Z,99517.47
2023-05-25T10:03:23.461Z,99522.50
2023-05-25T10:05:53.367Z,99517.75
2023-05-25T10:08:22.024Z,99521.72
2023-05-25T10:10:51.327Z,99517.47
2023-05-25T10:13:23.399Z,99524.56
2023-05-25T10:15:54.761Z,99522.75
2023-05-25T10:18:29.189Z,99531.50
2023-05-25T10:21:05.839Z,99534.88
2023-05-25T10:23:47.993Z,99533.66
2023-05-25T10:26:22.812Z,99536.63
2023-05-25T10:29:04.667Z,99535.31
2023-05-25T10:31:34.246Z,99546.03
2023-05-25T10:34:02.674Z,99536.44
2023-05-25T10:36:32.212Z,99538.19
2023-05-25T10:39:01.990Z,99535.75
2023-05-25T10:41:32.120Z,99529.34
2023-05-25T10:44:00.481Z,99537.56
2023-05-25T10:46:29.152Z,99534.94
2023-05-25T10:49:02.367Z,99531.16
2023-05-25T10:51:43.872Z,99538.94
2023-05-25T10:54:15.227Z,99533.63
2023-05-25T10:57:16.443Z,99521.53
2023-05-25T10:59:48.248Z,99513.91
2023-05-25T11:02:18.174Z,99502.16
2023-05-25T11:04:49.339Z,99499.09
2023-05-25T11:07:19.560Z,99496.44
2023-05-25T11:09:58.897Z,99500.63
2023-05-25T11:12:27.530Z,99502.47
2023-05-25T11:15:15.218Z,99503.78
2023-05-25T11:18:02.567Z,99495.97
2023-05-25T11:20:30.869Z,99493.22
2023-05-25T11:22:59.043Z,99500.59
2023-05-25T11:25:43.985Z,99510.31
2023-05-25T11:28:12.616Z,99518.72
2023-05-25T11:30:44.333Z,99513.75
2023-05-25T11:33:12.644Z,99520.66
2023-05-25T11:35:41.985Z,99514.84
2023-05-25T11:38:09.849Z,99509.47
2023-05-25T11:40:40.219Z,99504.94
2023-05-25T11:43:09.339Z,99500.81
2023-05-25T11:45:38.513Z,99497.84
2023-05-25T11:48:06.477Z,99496.19
2023-05-25T11:50:34.113Z,99493.03
2023-05-25T11:53:07.360Z,99484.22
2023-05-25T11:55:35.132Z,99481.19
2023-05-25T11:58:02.778Z,99485.38
2023-05-25T12:00:31.526Z,99469.56
2023-05-25T12:02:59.162Z,99471.53
2023-05-25T12:05:26.735Z,99464.34
2023-05-25T12:07:54.251Z,99463.63
2023-05-25T12:10:21.723Z,99474.25
2023-05-25T12:12:51.604Z,99465.72
2023-05-25T12:15:23.428Z,99471.94
2023-05-25T12:17:53.803Z,99476.25
2023-05-25T12:20:22.001Z,99469.66
2023-05-25T12:22:49.770Z,99479.44
2023-05-25T12:25:22.765Z,99477.66
2023-05-25T12:28:09.492Z,99474.31
2023-05-25T12:30:37.231Z,99481.13
2023-05-25T12:33:05.119Z,99484.50
2023-05-25T12:35:48.183Z,99491.41
2023-05-25T12:38:21.645Z,99492.25
2023-05-25T12:41:08.798Z,99502.31
2023-05-25T12:43:43.223Z,99491.41
2023-05-25T12:46:11.000Z,99498.41
2023-05-25T12:48:38.623Z,99502.97
2023-05-25T12:51:06.291Z,99508.34
2023-05-25T12:53:51.263Z,99505.41
2023-05-25T12:56:18.995Z,99505.16
2023-05-25T12:58:46.463Z,99499.28
2023-05-25T13:01:14.091Z,99493.69
2023-05-25T13:03:41.628Z,99493.41
2023-05-25T13:06:09.252Z,99490.13
2023-05-25T13:08:36.894Z,99483.25
2023-05-25T13:11:05.183Z,99474.22
2023-05-25T13:13:32.945Z,99467.78
2023-05-25T13:16:00.606Z,99478.22
2023-05-25T13:18:28.344Z,99485.63
2023-05-25T13:20:57.341Z,99485.88
2023-05-25T13:23:25.204Z,99497.81
2023-05-25T13:25:52.836Z,99506.78
2023-05-25T13:28:20.312Z,99506.47
2023-05-25T13:30:47.902Z,99511.13
2023-05-25T13:33:15.451Z,99522.28
2023-05-25T13:35:58.076Z,99518.09
2023-05-25T13:38:26.439Z,99528.16
2023-05-25T13:40:54.016Z,99531.13
2023-05-25T13:43:21.969Z,99537.31
2023-05-25T13:45:49.866Z,99533.63
2023-05-25T13:48:17.524Z,99538.66
2023-05-25T13:50:45.640Z,99539.38
2023-05-25T13:53:13.779Z,99533.72
2023-05-25T13:55:41.241Z,99534.56
2023-05-25T13:58:09.412Z,99541.81
2023-05-25T14:00:37.060Z,99538.81
2023-05-25T14:03:04.636Z,99543.41
2023-05-25T14:05:32.242Z,99541.16
2023-05-25T14:08:02.640Z,99535.44
2023-05-25T14:10:31.001Z,99530.88
2023-05-25T14:12:58.712Z,99534.03
2023-05-25T14:15:26.586Z,99532.03
2023-05-25T14:17:57.263Z,99529.41
2023-05-25T14:20:26.414Z,99521.41
2023-05-25T14:22:54.547Z,99516.06
2023-05-25T14:25:22.090Z,99514.50
2023-05-25T14:27:49.613Z,99517.59
2023-05-25T14:30:18.697Z,99514.56
2023-05-25T14:32:46.324Z,99514.13
2023-05-25T14:35:13.948Z,99501.91
2023-05-25T14:37:41.661Z,99500.00
2023-05-25T14:40:10.020Z,99500.41
2023-05-25T14:42:37.669Z,99506.53
2023-05-25T14:45:08.684Z,99494.72
2023-05-25T14:47:38.650Z,99496.59
2023-05-25T14:50:07.172Z,99495.41
2023-05-25T14:52:34.717Z,99500.41
2023-05-25T14:55:02.390Z,99505.34
2023-05-25T14:57:29.919Z,99505.00
2023-05-25T14:59:57.629Z,99501.59
2023-05-25T15:02:25.577Z,99499.69
2023-05-25T15:04:54.564Z,99487.50
2023-05-25T15:07:22.675Z,99486.72
2023-05-25T15:09:51.600Z,99489.78
2023-05-25T15:12:19.087Z,99487.13
2023-05-25T15:14:48.498Z,99477.56
2023-05-25T15:17:16.374Z,99479.50
2023-05-25T15:19:43.921Z,99491.66
2023-05-25T15:22:12.929Z,99477.56
2023-05-25T15:24:40.450Z,99477.50
2023-05-25T15:27:08.161Z,99469.84
2023-05-25T15:29:37.121Z,99473.63
2023-05-25T15:32:04.992Z,99472.88
2023-05-25T15:34:32.524Z,99470.56
2023-05-25T15:37:00.368Z,99466.34
2023-05-25T15:39:27.822Z,99475.47
2023-05-25T15:41:57.513Z,99483.00
2023-05-25T15:44:35.741Z,99486.19
2023-05-25T15:47:08.588Z,99484.59
2023-05-25T15:49:40.849Z,99483.75
2023-05-25T15:52:09.596Z,99479.19
2023-05-25T15:54:38.402Z,99468.56
2023-05-25T15:57:12.086Z,99474.59
2023-05-25T15:59:41.110Z,99479.16
2023-05-25T16:02:10.369Z,99473.41
2023-05-25T16:04:39.138Z,99469.59
2023-05-25T16:07:11.115Z,99463.44
2023-05-25T16:09:44.017Z,99455.75
2023-05-25T16:12:13.457Z,99455.75
2023-05-25T16:14:44.281Z,99458.00
2023-05-25T16:17:16.314Z,99454.56
2023-05-25T16:19:50.891Z,99472.84
2023-05-25T16:22:21.188Z,99484.28
2023-05-25T16:24:50.171Z,99505.50
2023-05-25T16:27:18.284Z,99512.75
2023-05-25T16:29:46.414Z,99518.25
2023-05-25T16:32:17.627Z,99524.41
2023-05-25T16:34:46.612Z,99526.88
2023-05-25T16:37:14.824Z,99521.91
2023-05-25T16:39:44.671Z,99519.91
2023-05-25T16:42:15.353Z,99515.69
2023-05-25T16:44:42.832Z,99519.34
2023-05-25T16:47:10.289Z,99519.13
2023-05-25T16:49:38.905Z,99512.53
2023-05-25T16:52:10.602Z,99509.00
2023-05-25T16:54:38.157Z,99513.31
2023-05-25T16:57:06.913Z,99506.75
2023-05-25T16:59:34.443Z,99495.81
2023-05-25T17:02:03.459Z,99485.72
2023-05-25T17:04:30.976Z,99484.63
2023-05-25T17:06:58.530Z,99486.56
2023-05-25T17:09:26.530Z,99480.84
2023-05-25T17:11:59.910Z,99487.03
2023-05-25T17:14:28.217Z,99485.53
2023-05-25T17:16:57.212Z,99485.91
2023-05-25T17:19:25.850Z,99476.66
2023-05-25T17:21:53.412Z,99476.97
2023-05-25T17:24:22.960Z,99474.13
2023-05-25T17:26:53.236Z,99479.66
2023-05-25T17:29:23.587Z,99481.81
2023-05-25T17:31:51.296Z,99483.59
2023-05-25T17:34:20.316Z,99487.94
2023-05-25T17:36:51.732Z,99482.53
2023-05-25T17:39:19.305Z,99495.25
2023-05-25T17:41:52.814Z,99502.66
2023-05-25T17:44:21.514Z,99498.13
2023-05-25T17:46:56.184Z,99491.44
2023-05-25T17:49:25.459Z,99494.47
2023-05-25T17:51:53.521Z,99495.16
2023-05-25T17:54:27.642Z,99487.81
2023-05-25T17:56:57.699Z,99495.69
2023-05-25T17:59:25.272Z,99489.72
2023-05-25T18:01:52.942Z,99493.41
2023-05-25T18:04:20.708Z,99490.22
2023-05-25T18:06:52.343Z,99499.56
2023-05-25T18:09:20.507Z,99494.34
2023-05-25T18:11:49.240Z,99495.44
2023-05-25T18:14:17.304Z,99495.34
2023-05-25T18:16:45.052Z,99489.41
2023-05-25T18:19:15.254Z,99495.22
2023-05-25T18:21:44.199Z,99491.72
2023-05-25T18:24:13.604Z,99491.78
2023-05-25T18:26:42.709Z,99493.38
2023-05-25T18:29:10.356Z,99486.06
2023-05-25T18:31:38.028Z,99493.97
2023-05-25T18:34:09.846Z,99490.94
2023-05-25T18:36:37.598Z,99494.16
2023-05-25T18:39:11.724Z,99500.81
2023-05-25T18:41:43.158Z,99502.69
2023-05-25T18:44:10.853Z,99503.38
2023-05-25T18:46:43.891Z,99510.47
2023-05-25T18:49:11.846Z,99505.59
2023-05-25T18:51:40.857Z,99503.25
2023-05-25T18:54:30.286Z,99511.00
2023-05-25T18:57:09.945Z,99511.34
2023-05-25T18:59:38.979Z,99524.69
2023-05-25T19:02:14.017Z,99518.59
2023-05-25T19:04:43.274Z,99538.28
2023-05-25T19:07:15.219Z,99539.69
2023-05-25T19:09:45.522Z,99543.41
2023-05-25T19:12:21.055Z,99544.72
2023-05-25T19:14:52.073Z,99545.53
2023-05-25T19:17:23.240Z,99551.00
2023-05-25T19:19:51.292Z,99543.41
2023-05-25T19:22:25.484Z,99554.69
2023-05-25T19:25:01.028Z,99558.25
2023-05-25T19:27:39.831Z,99564.97
2023-05-25T19:30:09.586Z,99563.84
2023-05-25T19:32:42.576Z,99554.34
2023-05-25T19:35:12.272Z,99558.66
2023-05-25T19:37:43.789Z,99559.22
2023-05-25T19:40:22.021Z,99560.50
2023-05-25T19:42:53.259Z,99562.78
2023-05-25T19:45:25.332Z,99568.03
2023-05-25T19:47:57.460Z,99565.66
2023-05-25T19:50:32.705Z,99566.34
2023-05-25T19:53:03.180Z,99557.00
2023-05-25T19:55:32.395Z,99566.19
2023-05-25T19:58:06.288Z,99551.44
2023-05-25T20:00:38.448Z,99557.84
2023-05-25T20:03:16.614Z,99559.53
2023-05-25T20:05:46.534Z,99563.00
2023-05-25T20:08:15.840Z,99564.53
2023-05-25T20:10:45.631Z,99559.91
2023-05-25T20:13:13.313Z,99552.94
2023-05-25T20:15:41.385Z,99559.78
2023-05-25T20:18:10.442Z,99556.59
2023-05-25T20:20:38.883Z,99557.28
2023-05-25T20:23:07.076Z,99551.28
2023-05-25T20:25:34.570Z,99551.69
2023-05-25T20:28:02.201Z,99553.94
2023-05-25T20:30:29.921Z,99552.53
2023-05-25T20:32:57.493Z,99548.41
2023-05-25T20:35:25.720Z,99554.06
2023-05-25T20:37:53.244Z,99557.19
2023-05-25T20:40:20.970Z,99551.84
2023-05-25T20:42:48.556Z,99556.50
2023-05-25T20:45:16.605Z,99551.22
2023-05-25T20:47:44.622Z,99545.97
2023-05-25T20:50:13.298Z,99550.03
2023-05-25T20:52:41.760Z,99551.91
2023-05-25T20:55:09.253Z,99540.09
2023-05-25T20:57:37.154Z,99545.41
2023-05-25T21:00:08.365Z,99551.97
2023-05-25T21:02:36.091Z,99546.31
2023-05-25T21:05:06.810Z,99543.34
2023-05-25T21:07:34.382Z,99539.22
2023-05-25T21:10:04.456Z,99539.69
2023-05-25T21:12:31.931Z,99539.00
2023-05-25T21:14:59.418Z,99532.88
2023-05-25T21:17:28.935Z,99526.16
2023-05-25T21:19:56.704Z,99534.88
2023-05-25T21:22:24.293Z,99537.59
2023-05-25T21:24:51.788Z,99537.59
2023-05-25T21:27:19.353Z,99539.91
2023-05-25T21:29:46.832Z,99543.19
2023-05-25T21:32:17.211Z,99537.03
2023-05-25T21:34:44.733Z,99539.63
2023-05-25T21:37:13.527Z,99541.25
2023-05-25T21:39:41.060Z,99541.88
2023-05-25T21:42:09.292Z,99544.13
2023-05-25T21:44:36.765Z,99537.97
2023-05-25T21:47:05.355Z,99533.31
2023-05-25T21:49:33.265Z,99530.91
2023-05-25T21:52:00.839Z,99526.47
2023-05-25T21:54:28.360Z,99519.88
2023-05-25T21:56:55.895Z,99526.91
2023-05-25T21:59:23.421Z,99532.31
2023-05-25T22:01:51.207Z,99533.75
2023-05-25T22:04:18.831Z,99536.16
2023-05-25T22:06:46.385Z,99525.56
2023-05-25T22:09:13.911Z,99537.16
2023-05-25T22:11:43.059Z,99537.25
2023-05-25T22:14:10.645Z,99540.66
2023-05-25T22:16:38.187Z,99535.13
2023-05-25T22:19:05.810Z,99542.13
2023-05-25T22:21:33.332Z,99543.22
2023-05-25T22:24:00.971Z,99537.59
2023-05-25T22:26:29.252Z,99540.69
2023-05-25T22:28:57.242Z,99531.78
2023-05-25T22:31:26.348Z,99534.34
2023-05-25T22:33:54.377Z,99534.00
2023-05-25T22:36:21.898Z,99541.00
2023-05-25T22:38:49.465Z,99533.41
2023-05-25T22:41:16.986Z,99538.59
2023-05-25T22:43:44.448Z,99540.16
2023-05-25T22:46:12.443Z,99539.81
2023-05-25T22:48:40.719Z,99539.22
2023-05-25T22:51:08.127Z,99530.41
2023-05-25T22:53:35.718Z,99528.81
2023-05-25T22:56:05.927Z,99522.56
2023-05-25T22:58:33.464Z,99523.78
2023-05-25T23:01:00.886Z,99526.78
2023-05-25T23:03:28.611Z,99522.56
2023-05-25T23:05:56.382Z,99528.03
2023-05-25T23:08:23.933Z,99529.31
2023-05-25T23:10:51.494Z,99526.00
2023-05-25T23:13:19.318Z,99517.72
2023-05-25T23:15:48.521Z,99516.69
2023-05-25T23:18:16.057Z,99510.69
2023-05-25T23:20:44.046Z,99515.81
2023-05-25T23:23:11.727Z,99514.88
2023-05-25T23:25:39.381Z,99516.75
2023-05-25T23:28:06.895Z,99516.75
2023-05-25T23:30:34.394Z,99517.78
2023-05-25T23:33:01.914Z,99513.59
2023-05-25T23:35:29.406Z,99519.16
2023-05-25T23:37:57.744Z,99509.78
2023-05-25T23:40:25.342Z,99513.34
2023-05-25T23:42:52.826Z,99510.75
2023-05-25T23:45:20.815Z,99516.22
2023-05-25T23:47:48.295Z,99508.47
2023-05-25T23:50:16.018Z,99515.25
2023-05-25T23:52:46.103Z,99505.22
2023-05-25T23:55:14.684Z,99495.38
2023-05-25T23:57:42.250Z,99506.69
